Adkins, Texas
Current Conditions -  °F | °C
As of 4:58 AM on Friday 24 Oct 2014 (Local Time) from KRND Reporting Station
Clear Clear  
Wind Chill: 60°   Ceiling: Unl
Heat Index: 60°   Visibility: 10mi
Dew Point: 55°   Wind: 3mph
Humidity: 84%   Direction: 330°NNW
Pressure: 30.12"   Gusts: NA
Location:  29.39°N, 98.24°W
Report Text: KRND 240958Z AUTO 33003KT 10SM CLR 15/13 A3012 RMK AO2 SLP194 T01530127 $
Loading
Personal Weather Stations






























Interactive Weather Map
Tropical Storm Tracking
New forecast layout! Learn more

10-Day Weather Forecast

Advertisements
Track Severe Weather on mobile